sensor_id;sensor_type;location;lat;lon;timestamp;pressure;altitude;pressure_sealevel;temperature;humidity
43071;BME280;36278;47.952;21.714;2022-10-31T00:00:26;101067.16;;;12.13;100.00
43071;BME280;36278;47.952;21.714;2022-10-31T00:02:52;101062.28;;;12.07;100.00
43071;BME280;36278;47.952;21.714;2022-10-31T00:05:17;101072.91;;;12.07;100.00
43071;BME280;36278;47.952;21.714;2022-10-31T00:07:43;101076.53;;;12.06;100.00
43071;BME280;36278;47.952;21.714;2022-10-31T00:10:08;101073.03;;;12.05;100.00
43071;BME280;36278;47.952;21.714;2022-10-31T00:12:34;101077.56;;;12.03;100.00
43071;BME280;36278;47.952;21.714;2022-10-31T00:14:59;101083.00;;;12.02;100.00
43071;BME280;36278;47.952;21.714;2022-10-31T00:17:25;101079.25;;;12.04;100.00
43071;BME280;36278;47.952;21.714;2022-10-31T00:19:51;101073.88;;;12.06;100.00
43071;BME280;36278;47.952;21.714;2022-10-31T00:22:16;101081.06;;;12.04;100.00
43071;BME280;36278;47.952;21.714;2022-10-31T00:24:42;101072.25;;;12.03;100.00
43071;BME280;36278;47.952;21.714;2022-10-31T00:27:07;101067.78;;;12.04;100.00
43071;BME280;36278;47.952;21.714;2022-10-31T00:29:33;101062.28;;;12.07;100.00
43071;BME280;36278;47.952;21.714;2022-10-31T00:31:58;101058.13;;;12.03;100.00
43071;BME280;36278;47.952;21.714;2022-10-31T00:34:23;101064.94;;;12.07;100.00
43071;BME280;36278;47.952;21.714;2022-10-31T00:36:49;101058.97;;;12.03;100.00
43071;BME280;36278;47.952;21.714;2022-10-31T00:39:14;101055.03;;;11.96;100.00
43071;BME280;36278;47.952;21.714;2022-10-31T00:41:40;101049.22;;;11.91;100.00
43071;BME280;36278;47.952;21.714;2022-10-31T00:44:05;101057.41;;;12.01;100.00
43071;BME280;36278;47.952;21.714;2022-10-31T00:46:31;101065.34;;;12.01;100.00
43071;BME280;36278;47.952;21.714;2022-10-31T00:48:56;101062.81;;;11.99;100.00
43071;BME280;36278;47.952;21.714;2022-10-31T00:51:22;101065.91;;;12.06;100.00
43071;BME280;36278;47.952;21.714;2022-10-31T00:53:47;101067.38;;;12.10;100.00
43071;BME280;36278;47.952;21.714;2022-10-31T00:56:13;101062.28;;;12.07;100.00
43071;BME280;36278;47.952;21.714;2022-10-31T00:58:38;101063.13;;;12.07;100.00
43071;BME280;36278;47.952;21.714;2022-10-31T01:01:04;101063.97;;;12.08;100.00
43071;BME280;36278;47.952;21.714;2022-10-31T01:03:31;101068.56;;;12.06;100.00
43071;BME280;36278;47.952;21.714;2022-10-31T01:05:58;101064.94;;;12.07;100.00
43071;BME280;36278;47.952;21.714;2022-10-31T01:08:24;101064.72;;;12.10;100.00
43071;BME280;36278;47.952;21.714;2022-10-31T01:11:20;101060.38;;;12.09;100.00
43071;BME280;36278;47.952;21.714;2022-10-31T01:13:47;101067.47;;;12.09;100.00
43071;BME280;36278;47.952;21.714;2022-10-31T01:16:15;101059.63;;;12.07;100.00
43071;BME280;36278;47.952;21.714;2022-10-31T01:18:41;101059.41;;;12.10;100.00
43071;BME280;36278;47.952;21.714;2022-10-31T01:23:34;101055.91;;;12.10;100.00
43071;BME280;36278;47.952;21.714;2022-10-31T01:26:13;101051.78;;;12.05;100.00
43071;BME280;36278;47.952;21.714;2022-10-31T01:28:53;101063.97;;;12.08;100.00
43071;BME280;36278;47.952;21.714;2022-10-31T01:31:21;101058.97;;;12.03;100.00
43071;BME280;36278;47.952;21.714;2022-10-31T01:33:47;101057.50;;;11.99;100.00
43071;BME280;36278;47.952;21.714;2022-10-31T01:38:38;101060.28;;;11.98;100.00
43071;BME280;36278;47.952;21.714;2022-10-31T01:41:03;101060.47;;;11.95;100.00
43071;BME280;36278;47.952;21.714;2022-10-31T01:46:07;101061.31;;;11.95;100.00
43071;BME280;36278;47.952;21.714;2022-10-31T01:48:33;101059.75;;;11.93;100.00
43071;BME280;36278;47.952;21.714;2022-10-31T01:50:58;101061.31;;;11.95;100.00
43071;BME280;36278;47.952;21.714;2022-10-31T01:53:24;101058.22;;;11.89;100.00
43071;BME280;36278;47.952;21.714;2022-10-31T01:55:50;101050.69;;;11.95;100.00
43071;BME280;36278;47.952;21.714;2022-10-31T01:58:20;101047.94;;;11.97;100.00
43071;BME280;36278;47.952;21.714;2022-10-31T02:00:50;101043.81;;;11.93;100.00
43071;BME280;36278;47.952;21.714;2022-10-31T02:03:18;101037.41;;;11.95;100.00
43071;BME280;36278;47.952;21.714;2022-10-31T02:05:45;101035.28;;;11.88;100.00
43071;BME280;36278;47.952;21.714;2022-10-31T02:08:28;101044.53;;;11.95;100.00
43071;BME280;36278;47.952;21.714;2022-10-31T02:10:54;101050.06;;;11.92;100.00
43071;BME280;36278;47.952;21.714;2022-10-31T02:13:22;101048.25;;;11.92;100.00
43071;BME280;36278;47.952;21.714;2022-10-31T02:15:53;101052.72;;;11.92;100.00
43071;BME280;36278;47.952;21.714;2022-10-31T02:18:20;101054.53;;;11.91;100.00
43071;BME280;36278;47.952;21.714;2022-10-31T02:34:20;101046.56;;;11.91;100.00
43071;BME280;36278;47.952;21.714;2022-10-31T02:36:56;101043.25;;;11.88;100.00
43071;BME280;36278;47.952;21.714;2022-10-31T02:42:05;101048.81;;;11.85;100.00
43071;BME280;36278;47.952;21.714;2022-10-31T02:44:38;101048.91;;;11.83;100.00
43071;BME280;36278;47.952;21.714;2022-10-31T02:47:25;101047.84;;;11.86;100.00
43071;BME280;36278;47.952;21.714;2022-10-31T02:49:59;101052.19;;;11.87;100.00
43071;BME280;36278;47.952;21.714;2022-10-31T02:52:28;101056.75;;;11.85;100.00
43071;BME280;36278;47.952;21.714;2022-10-31T02:54:54;101051.09;;;11.76;100.00
43071;BME280;36278;47.952;21.714;2022-10-31T02:57:33;101056.53;;;11.75;100.00
43071;BME280;36278;47.952;21.714;2022-10-31T03:00:04;101052.25;;;11.72;100.00
43071;BME280;36278;47.952;21.714;2022-10-31T03:03:00;101051.31;;;11.73;100.00
43071;BME280;36278;47.952;21.714;2022-10-31T03:11:05;101051.22;;;11.75;100.00
43071;BME280;36278;47.952;21.714;2022-10-31T03:13:46;101047.59;;;11.76;100.00
43071;BME280;36278;47.952;21.714;2022-10-31T03:19:08;101058.00;;;11.79;100.00
43071;BME280;36278;47.952;21.714;2022-10-31T03:21:39;101056.03;;;11.83;100.00
43071;BME280;36278;47.952;21.714;2022-10-31T03:24:09;101064.00;;;11.83;100.00
43071;BME280;36278;47.952;21.714;2022-10-31T03:26:38;101052.78;;;11.77;100.00
43071;BME280;36278;47.952;21.714;2022-10-31T03:29:07;101053.13;;;11.73;100.00
43071;BME280;36278;47.952;21.714;2022-10-31T03:31:40;101055.78;;;11.73;100.00
43071;BME280;36278;47.952;21.714;2022-10-31T03:34:09;101055.34;;;11.66;100.00
43071;BME280;36278;47.952;21.714;2022-10-31T03:36:38;101063.81;;;11.71;100.00
43071;BME280;36278;47.952;21.714;2022-10-31T03:39:06;101063.09;;;11.69;100.00
43071;BME280;36278;47.952;21.714;2022-10-31T03:41:38;101065.31;;;11.63;100.00
43071;BME280;36278;47.952;21.714;2022-10-31T03:44:10;101065.41;;;11.61;100.00
43071;BME280;36278;47.952;21.714;2022-10-31T03:46:37;101069.88;;;11.61;100.00
43071;BME280;36278;47.952;21.714;2022-10-31T03:49:03;101055.75;;;11.60;100.00
43071;BME280;36278;47.952;21.714;2022-10-31T03:54:24;101062.69;;;11.75;100.00
43071;BME280;36278;47.952;21.714;2022-10-31T03:57:12;101064.59;;;11.73;100.00
43071;BME280;36278;47.952;21.714;2022-10-31T03:59:43;101065.44;;;11.74;100.00
43071;BME280;36278;47.952;21.714;2022-10-31T04:02:17;101059.81;;;11.78;100.00
43071;BME280;36278;47.952;21.714;2022-10-31T04:04:45;101056.75;;;11.85;100.00
43071;BME280;36278;47.952;21.714;2022-10-31T04:07:12;101061.34;;;11.83;100.00
43071;BME280;36278;47.952;21.714;2022-10-31T04:09:42;101068.22;;;11.85;100.00
43071;BME280;36278;47.952;21.714;2022-10-31T04:12:12;101069.94;;;11.86;100.00
43071;BME280;36278;47.952;21.714;2022-10-31T04:14:41;101064.63;;;11.86;100.00
43071;BME280;36278;47.952;21.714;2022-10-31T04:17:12;101076.19;;;11.85;100.00
43071;BME280;36278;47.952;21.714;2022-10-31T04:19:38;101064.00;;;11.83;100.00
43071;BME280;36278;47.952;21.714;2022-10-31T04:22:04;101068.84;;;11.89;100.00
43071;BME280;36278;47.952;21.714;2022-10-31T04:24:29;101068.97;;;11.87;100.00
43071;BME280;36278;47.952;21.714;2022-10-31T04:26:55;101068.84;;;11.89;100.00
43071;BME280;36278;47.952;21.714;2022-10-31T04:29:20;101063.78;;;11.86;100.00
43071;BME280;36278;47.952;21.714;2022-10-31T04:31:45;101072.28;;;11.91;100.00
43071;BME280;36278;47.952;21.714;2022-10-31T04:34:11;101070.66;;;11.88;100.00
43071;BME280;36278;47.952;21.714;2022-10-31T04:36:36;101074.81;;;11.92;100.00
43071;BME280;36278;47.952;21.714;2022-10-31T04:39:02;101072.78;;;11.96;100.00
43071;BME280;36278;47.952;21.714;2022-10-31T04:41:27;101068.88;;;12.01;100.00
43071;BME280;36278;47.952;21.714;2022-10-31T04:43:53;101076.59;;;12.04;100.00
43071;BME280;36278;47.952;21.714;2022-10-31T04:46:18;101088.53;;;11.99;100.00
43071;BME280;36278;47.952;21.714;2022-10-31T04:48:44;101075.03;;;12.02;100.00
43071;BME280;36278;47.952;21.714;2022-10-31T04:51:09;101079.91;;;12.08;100.00
43071;BME280;36278;47.952;21.714;2022-10-31T04:53:34;101071.00;;;12.09;100.00
43071;BME280;36278;47.952;21.714;2022-10-31T04:56:00;101078.41;;;12.04;100.00
43071;BME280;36278;47.952;21.714;2022-10-31T04:58:26;101078.97;;;12.09;100.00
43071;BME280;36278;47.952;21.714;2022-10-31T05:00:53;101074.59;;;12.08;100.00
43071;BME280;36278;47.952;21.714;2022-10-31T05:03:18;101080.41;;;12.13;100.00
43071;BME280;36278;47.952;21.714;2022-10-31T05:05:45;101087.34;;;12.16;100.00
43071;BME280;36278;47.952;21.714;2022-10-31T05:08:10;101077.56;;;12.16;100.00
43071;BME280;36278;47.952;21.714;2022-10-31T05:10:36;101078.66;;;12.14;100.00
43071;BME280;36278;47.952;21.714;2022-10-31T05:13:03;101075.88;;;12.15;100.00
43071;BME280;36278;47.952;21.714;2022-10-31T05:15:29;101078.53;;;12.15;100.00
43071;BME280;36278;47.952;21.714;2022-10-31T05:17:55;101080.97;;;12.18;100.00
43071;BME280;36278;47.952;21.714;2022-10-31T05:20:26;101088.69;;;12.21;100.00
43071;BME280;36278;47.952;21.714;2022-10-31T05:22:54;101087.22;;;12.17;100.00
43071;BME280;36278;47.952;21.714;2022-10-31T05:25:22;101089.03;;;12.17;100.00
43071;BME280;36278;47.952;21.714;2022-10-31T05:27:50;101096.91;;;12.18;100.00
43071;BME280;36278;47.952;21.714;2022-10-31T05:30:21;101094.78;;;12.23;100.00
43071;BME280;36278;47.952;21.714;2022-10-31T05:32:49;101099.25;;;12.23;100.00
43071;BME280;36278;47.952;21.714;2022-10-31T05:35:17;101090.97;;;12.15;100.00
43071;BME280;36278;47.952;21.714;2022-10-31T05:37:43;101094.97;;;12.20;100.00
43071;BME280;36278;47.952;21.714;2022-10-31T05:40:10;101097.56;;;12.22;100.00
43071;BME280;36278;47.952;21.714;2022-10-31T05:42:38;101098.41;;;12.22;100.00
43071;BME280;36278;47.952;21.714;2022-10-31T05:45:04;101102.75;;;12.23;100.00
43071;BME280;36278;47.952;21.714;2022-10-31T05:47:29;101107.00;;;12.26;100.00
43071;BME280;36278;47.952;21.714;2022-10-31T05:49:55;101103.50;;;12.25;100.00
43071;BME280;36278;47.952;21.714;2022-10-31T05:52:20;101101.88;;;12.35;100.00
43071;BME280;36278;47.952;21.714;2022-10-31T05:54:46;101106.03;;;12.40;100.00
43071;BME280;36278;47.952;21.714;2022-10-31T05:57:11;101112.06;;;12.42;100.00
43071;BME280;36278;47.952;21.714;2022-10-31T05:59:37;101107.50;;;12.44;100.00
43071;BME280;36278;47.952;21.714;2022-10-31T06:02:03;101112.19;;;12.40;100.00
43071;BME280;36278;47.952;21.714;2022-10-31T06:04:28;101114.44;;;12.46;100.00
43071;BME280;36278;47.952;21.714;2022-10-31T06:06:54;101120.59;;;12.47;100.00
43071;BME280;36278;47.952;21.714;2022-10-31T06:09:19;101123.13;;;12.48;100.00
43071;BME280;36278;47.952;21.714;2022-10-31T06:11:45;101132.59;;;12.40;100.00
43071;BME280;36278;47.952;21.714;2022-10-31T06:14:10;101121.75;;;12.43;100.00
43071;BME280;36278;47.952;21.714;2022-10-31T06:16:36;101127.72;;;12.46;100.00
43071;BME280;36278;47.952;21.714;2022-10-31T06:19:01;101132.16;;;12.46;100.00
43071;BME280;36278;47.952;21.714;2022-10-31T06:21:27;101125.38;;;12.42;100.00
43071;BME280;36278;47.952;21.714;2022-10-31T06:23:52;101123.66;;;12.41;100.00
43071;BME280;36278;47.952;21.714;2022-10-31T06:26:17;101127.47;;;12.37;100.00
43071;BME280;36278;47.952;21.714;2022-10-31T06:28:43;101138.34;;;12.33;100.00
43071;BME280;36278;47.952;21.714;2022-10-31T06:31:08;101141.63;;;12.37;100.00
43071;BME280;36278;47.952;21.714;2022-10-31T06:33:34;101138.22;;;12.35;100.00
43071;BME280;36278;47.952;21.714;2022-10-31T06:36:00;101141.22;;;12.30;100.00
43071;BME280;36278;47.952;21.714;2022-10-31T06:38:26;101143.66;;;12.33;100.00
43071;BME280;36278;47.952;21.714;2022-10-31T06:40:52;101139.50;;;12.29;100.00
43071;BME280;36278;47.952;21.714;2022-10-31T06:43:18;101137.16;;;12.38;100.00
43071;BME280;36278;47.952;21.714;2022-10-31T06:45:43;101134.06;;;12.44;100.00
43071;BME280;36278;47.952;21.714;2022-10-31T06:48:09;101148.44;;;12.41;100.00
43071;BME280;36278;47.952;21.714;2022-10-31T06:50:34;101148.53;;;12.40;100.00
43071;BME280;36278;47.952;21.714;2022-10-31T06:53:00;101143.41;;;12.37;100.00
43071;BME280;36278;47.952;21.714;2022-10-31T06:55:26;101145.56;;;12.31;100.00
43071;BME280;36278;47.952;21.714;2022-10-31T06:57:52;101150.03;;;12.31;100.00
43071;BME280;36278;47.952;21.714;2022-10-31T07:00:18;101153.53;;;12.31;100.00
43071;BME280;36278;47.952;21.714;2022-10-31T07:03:02;101161.19;;;12.36;100.00
43071;BME280;36278;47.952;21.714;2022-10-31T07:05:28;101160.97;;;12.26;100.00
43071;BME280;36278;47.952;21.714;2022-10-31T07:07:55;101158.97;;;12.30;100.00
43071;BME280;36278;47.952;21.714;2022-10-31T07:10:21;101157.66;;;12.35;100.00
43071;BME280;36278;47.952;21.714;2022-10-31T07:12:46;101151.19;;;12.40;100.00
43071;BME280;36278;47.952;21.714;2022-10-31T07:15:12;101145.78;;;12.41;100.00
43071;BME280;36278;47.952;21.714;2022-10-31T07:17:37;101142.03;;;12.44;100.00
43071;BME280;36278;47.952;21.714;2022-10-31T07:20:03;101145.34;;;12.47;100.00
43071;BME280;36278;47.952;21.714;2022-10-31T07:22:35;101139.81;;;12.50;100.00
43071;BME280;36278;47.952;21.714;2022-10-31T07:25:01;101131.28;;;12.58;100.00
43071;BME280;36278;47.952;21.714;2022-10-31T07:27:26;101134.47;;;12.63;100.00
43071;BME280;36278;47.952;21.714;2022-10-31T07:29:52;101127.97;;;12.67;100.00
43071;BME280;36278;47.952;21.714;2022-10-31T07:32:17;101141.03;;;12.70;100.00
43071;BME280;36278;47.952;21.714;2022-10-31T07:34:43;101158.53;;;12.49;100.00
43071;BME280;36278;47.952;21.714;2022-10-31T07:37:08;101149.06;;;12.45;100.00
43071;BME280;36278;47.952;21.714;2022-10-31T07:39:33;101152.25;;;12.50;100.00
43071;BME280;36278;47.952;21.714;2022-10-31T07:41:59;101154.06;;;12.37;100.00
43071;BME280;36278;47.952;21.714;2022-10-31T07:44:24;101147.59;;;12.41;100.00
43071;BME280;36278;47.952;21.714;2022-10-31T07:46:50;101148.31;;;12.43;100.00
43071;BME280;36278;47.952;21.714;2022-10-31T07:49:15;101145.25;;;12.49;100.00
43071;BME280;36278;47.952;21.714;2022-10-31T07:51:41;101149.16;;;12.56;100.00
43071;BME280;36278;47.952;21.714;2022-10-31T07:54:06;101152.44;;;12.59;100.00
43071;BME280;36278;47.952;21.714;2022-10-31T07:56:31;101156.47;;;12.65;100.00
43071;BME280;36278;47.952;21.714;2022-10-31T07:58:57;101146.81;;;12.64;100.00
43071;BME280;36278;47.952;21.714;2022-10-31T08:01:22;101145.72;;;12.67;100.00
43071;BME280;36278;47.952;21.714;2022-10-31T08:03:48;101156.25;;;12.68;100.00
43071;BME280;36278;47.952;21.714;2022-10-31T08:06:13;101157.44;;;12.64;100.00
43071;BME280;36278;47.952;21.714;2022-10-31T08:08:38;101143.63;;;12.59;100.00
43071;BME280;36278;47.952;21.714;2022-10-31T08:11:04;101164.34;;;12.67;100.00
43071;BME280;36278;47.952;21.714;2022-10-31T08:13:29;101166.38;;;12.63;100.00
43071;BME280;36278;47.952;21.714;2022-10-31T08:15:57;101176.91;;;12.52;100.00
43071;BME280;36278;47.952;21.714;2022-10-31T08:18:28;101175.09;;;12.52;100.00
43071;BME280;36278;47.952;21.714;2022-10-31T08:20:53;101180.28;;;12.54;100.00
43071;BME280;36278;47.952;21.714;2022-10-31T08:23:19;101177.63;;;12.54;100.00
43071;BME280;36278;47.952;21.714;2022-10-31T08:25:44;101174.03;;;12.55;100.00
43071;BME280;36278;47.952;21.714;2022-10-31T08:28:14;101179.88;;;12.60;100.00
43071;BME280;36278;47.952;21.714;2022-10-31T08:30:40;101175.09;;;12.65;100.00
43071;BME280;36278;47.952;21.714;2022-10-31T08:33:10;101171.66;;;12.76;100.00
43071;BME280;36278;47.952;21.714;2022-10-31T08:35:36;101172.75;;;12.73;100.00
43071;BME280;36278;47.952;21.714;2022-10-31T08:38:02;101176.78;;;12.66;100.00
43071;BME280;36278;47.952;21.714;2022-10-31T08:40:29;101180.19;;;12.68;100.00
43071;BME280;36278;47.952;21.714;2022-10-31T08:43:03;101186.47;;;12.67;100.00
43071;BME280;36278;47.952;21.714;2022-10-31T08:45:30;101176.16;;;12.62;100.00
43071;BME280;36278;47.952;21.714;2022-10-31T08:47:57;101180.84;;;12.59;100.00
43071;BME280;36278;47.952;21.714;2022-10-31T08:50:23;101176.69;;;12.55;100.00
43071;BME280;36278;47.952;21.714;2022-10-31T08:52:48;101186.25;;;12.57;100.00
43071;BME280;36278;47.952;21.714;2022-10-31T08:55:13;101174.97;;;12.54;100.00
43071;BME280;36278;47.952;21.714;2022-10-31T08:57:39;101181.47;;;12.50;100.00
43071;BME280;36278;47.952;21.714;2022-10-31T09:00:05;101179.34;;;12.42;100.00
43071;BME280;36278;47.952;21.714;2022-10-31T09:02:30;101182.63;;;12.46;100.00
43071;BME280;36278;47.952;21.714;2022-10-31T09:04:56;101181.59;;;12.48;100.00
43071;BME280;36278;47.952;21.714;2022-10-31T09:07:21;101185.59;;;12.54;100.00
43071;BME280;36278;47.952;21.714;2022-10-31T09:09:47;101182.41;;;12.61;100.00
43071;BME280;36278;47.952;21.714;2022-10-31T09:12:12;101185.84;;;12.63;100.00
43071;BME280;36278;47.952;21.714;2022-10-31T09:14:38;101184.13;;;12.62;100.00
43071;BME280;36278;47.952;21.714;2022-10-31T09:17:03;101181.38;;;12.64;100.00
43071;BME280;36278;47.952;21.714;2022-10-31T09:19:28;101188.47;;;12.76;100.00
43071;BME280;36278;47.952;21.714;2022-10-31T09:21:54;101182.09;;;12.79;100.00
43071;BME280;36278;47.952;21.714;2022-10-31T09:24:20;101188.47;;;12.76;100.00
43071;BME280;36278;47.952;21.714;2022-10-31T09:26:45;101184.00;;;12.77;100.00
43071;BME280;36278;47.952;21.714;2022-10-31T09:29:10;101182.94;;;12.79;100.00
43071;BME280;36278;47.952;21.714;2022-10-31T09:31:36;101189.63;;;12.85;100.00
43071;BME280;36278;47.952;21.714;2022-10-31T09:34:02;101194.19;;;12.83;100.00
43071;BME280;36278;47.952;21.714;2022-10-31T09:36:27;101201.31;;;12.82;100.00
43071;BME280;36278;47.952;21.714;2022-10-31T09:38:52;101193.78;;;12.89;100.00
43071;BME280;36278;47.952;21.714;2022-10-31T09:52:28;101195.88;;;12.97;100.00
43071;BME280;36278;47.952;21.714;2022-10-31T09:57:33;101196.50;;;13.00;100.00
43071;BME280;36278;47.952;21.714;2022-10-31T10:00:00;101205.63;;;13.09;100.00
43071;BME280;36278;47.952;21.714;2022-10-31T10:02:41;101206.16;;;13.14;100.00
43071;BME280;36278;47.952;21.714;2022-10-31T10:05:13;101204.09;;;13.17;100.00
43071;BME280;36278;47.952;21.714;2022-10-31T10:10:18;101204.78;;;13.08;100.00
43071;BME280;36278;47.952;21.714;2022-10-31T10:13:25;101195.50;;;13.14;100.00
43071;BME280;36278;47.952;21.714;2022-10-31T10:18:52;101203.25;;;13.17;100.00
43071;BME280;36278;47.952;21.714;2022-10-31T10:21:39;101207.44;;;13.21;100.00
43071;BME280;36278;47.952;21.714;2022-10-31T10:29:34;101196.34;;;13.27;100.00
43071;BME280;36278;47.952;21.714;2022-10-31T10:32:12;101204.84;;;13.32;100.00
43071;BME280;36278;47.952;21.714;2022-10-31T10:34:47;101196.94;;;13.20;100.00
43071;BME280;36278;47.952;21.714;2022-10-31T10:37:41;101202.75;;;13.12;100.00
43071;BME280;36278;47.952;21.714;2022-10-31T10:40:15;101196.47;;;13.13;100.00
43071;BME280;36278;47.952;21.714;2022-10-31T10:42:41;101193.28;;;13.21;100.00
43071;BME280;36278;47.952;21.714;2022-10-31T10:45:25;101198.06;;;13.28;100.00
43071;BME280;36278;47.952;21.714;2022-10-31T10:48:18;101196.44;;;13.26;100.00
43071;BME280;36278;47.952;21.714;2022-10-31T10:50:50;101193.28;;;13.21;100.00
43071;BME280;36278;47.952;21.714;2022-10-31T10:53:28;101189.78;;;13.20;100.00
43071;BME280;36278;47.952;21.714;2022-10-31T10:56:36;101185.00;;;13.12;100.00
43071;BME280;36278;47.952;21.714;2022-10-31T10:59:09;101180.84;;;13.08;100.00
43071;BME280;36278;47.952;21.714;2022-10-31T11:01:36;101175.03;;;13.03;100.00
43071;BME280;36278;47.952;21.714;2022-10-31T11:04:07;101173.34;;;12.89;100.00
43071;BME280;36278;47.952;21.714;2022-10-31T11:06:39;101174.44;;;12.87;100.00
43071;BME280;36278;47.952;21.714;2022-10-31T11:09:10;101171.53;;;12.77;100.00
43071;BME280;36278;47.952;21.714;2022-10-31T11:11:38;101172.31;;;12.79;100.00
43071;BME280;36278;47.952;21.714;2022-10-31T11:14:12;101176.13;;;12.88;100.00
43071;BME280;36278;47.952;21.714;2022-10-31T11:16:42;101167.91;;;12.91;100.00
43071;BME280;36278;47.952;21.714;2022-10-31T11:19:23;101162.91;;;12.86;100.00
43071;BME280;36278;47.952;21.714;2022-10-31T11:21:50;101162.78;;;13.01;100.00
43071;BME280;36278;47.952;21.714;2022-10-31T11:24:18;101158.59;;;13.09;100.00
43071;BME280;36278;47.952;21.714;2022-10-31T11:26:46;101161.06;;;13.12;100.00
43071;BME280;36278;47.952;21.714;2022-10-31T11:29:23;101170.38;;;13.18;100.00
43071;BME280;36278;47.952;21.714;2022-10-31T11:31:52;101168.56;;;13.18;100.00
43071;BME280;36278;47.952;21.714;2022-10-31T11:34:30;101163.06;;;13.09;100.00
43071;BME280;36278;47.952;21.714;2022-10-31T11:37:21;101166.16;;;13.03;100.00
43071;BME280;36278;47.952;21.714;2022-10-31T11:39:53;101167.28;;;12.87;100.00
43071;BME280;36278;47.952;21.714;2022-10-31T11:42:26;101168.13;;;12.88;100.00
43071;BME280;36278;47.952;21.714;2022-10-31T11:44:53;101170.38;;;12.81;100.00
43071;BME280;36278;47.952;21.714;2022-10-31T11:47:28;101158.66;;;12.84;100.00
43071;BME280;36278;47.952;21.714;2022-10-31T11:49:56;101168.53;;;12.95;100.00
43071;BME280;36278;47.952;21.714;2022-10-31T11:52:25;101160.19;;;12.75;100.00
43071;BME280;36278;47.952;21.714;2022-10-31T11:54:58;101162.94;;;12.74;100.00
43071;BME280;36278;47.952;21.714;2022-10-31T11:57:46;101160.41;;;12.72;100.00
43071;BME280;36278;47.952;21.714;2022-10-31T12:00:29;101159.00;;;12.79;100.00
43071;BME280;36278;47.952;21.714;2022-10-31T12:06:04;101153.63;;;12.43;100.00
43071;BME280;36278;47.952;21.714;2022-10-31T12:08:32;101155.63;;;12.52;100.00
43071;BME280;36278;47.952;21.714;2022-10-31T12:11:15;101146.16;;;12.60;100.00
43071;BME280;36278;47.952;21.714;2022-10-31T12:27:16;101152.56;;;12.71;100.00
43071;BME280;36278;47.952;21.714;2022-10-31T12:46:04;101146.94;;;12.86;100.00
43071;BME280;36278;47.952;21.714;2022-10-31T12:48:42;101148.38;;;12.79;100.00
43071;BME280;36278;47.952;21.714;2022-10-31T13:01:47;101150.81;;;12.70;100.00
43071;BME280;36278;47.952;21.714;2022-10-31T13:06:54;101145.31;;;12.73;100.00
43071;BME280;36278;47.952;21.714;2022-10-31T13:09:54;101150.81;;;12.82;100.00
43071;BME280;36278;47.952;21.714;2022-10-31T13:12:22;101145.72;;;12.79;100.00
43071;BME280;36278;47.952;21.714;2022-10-31T13:14:56;101145.91;;;12.76;100.00
43071;BME280;36278;47.952;21.714;2022-10-31T13:17:31;101146.56;;;12.80;100.00
43071;BME280;36278;47.952;21.714;2022-10-31T13:20:21;101148.81;;;12.73;100.00
43071;BME280;36278;47.952;21.714;2022-10-31T13:22:59;101141.69;;;12.74;100.00
43071;BME280;36278;47.952;21.714;2022-10-31T13:25:33;101148.06;;;12.71;100.00
43071;BME280;36278;47.952;21.714;2022-10-31T13:30:52;101143.59;;;12.72;100.00
43071;BME280;36278;47.952;21.714;2022-10-31T13:38:40;101145.31;;;12.73;100.00
43071;BME280;36278;47.952;21.714;2022-10-31T13:44:04;101155.59;;;12.77;100.00
43071;BME280;36278;47.952;21.714;2022-10-31T13:46:37;101152.31;;;12.74;100.00
43071;BME280;36278;47.952;21.714;2022-10-31T13:49:03;101157.63;;;12.74;100.00
43071;BME280;36278;47.952;21.714;2022-10-31T13:51:33;101151.91;;;12.67;100.00
43071;BME280;36278;47.952;21.714;2022-10-31T13:54:06;101155.13;;;12.47;100.00
43071;BME280;36278;47.952;21.714;2022-10-31T13:56:48;101154.72;;;12.40;100.00
43071;BME280;36278;47.952;21.714;2022-10-31T13:59:18;101156.41;;;12.41;100.00
43071;BME280;36278;47.952;21.714;2022-10-31T14:01:59;101153.84;;;12.40;100.00
43071;BME280;36278;47.952;21.714;2022-10-31T14:07:11;101147.47;;;12.29;100.00
43071;BME280;36278;47.952;21.714;2022-10-31T14:12:27;101154.25;;;12.21;100.00
43071;BME280;36278;47.952;21.714;2022-10-31T14:17:33;101152.78;;;12.29;100.00
43071;BME280;36278;47.952;21.714;2022-10-31T14:22:48;101153.53;;;12.31;100.00
43071;BME280;36278;47.952;21.714;2022-10-31T14:25:34;101151.31;;;12.38;100.00
43071;BME280;36278;47.952;21.714;2022-10-31T14:28:03;101152.91;;;12.41;100.00
43071;BME280;36278;47.952;21.714;2022-10-31T14:30:54;101154.06;;;12.37;100.00
43071;BME280;36278;47.952;21.714;2022-10-31T14:33:22;101151.63;;;12.33;100.00
43071;BME280;36278;47.952;21.714;2022-10-31T14:35:55;101156.09;;;12.33;100.00
43071;BME280;36278;47.952;21.714;2022-10-31T14:38:28;101150.88;;;12.31;100.00
43071;BME280;36278;47.952;21.714;2022-10-31T14:52:48;101145.66;;;12.17;100.00
43071;BME280;36278;47.952;21.714;2022-10-31T14:55:15;101145.56;;;12.19;100.00
43071;BME280;36278;47.952;21.714;2022-10-31T14:57:49;101148.09;;;12.20;100.00
43071;BME280;36278;47.952;21.714;2022-10-31T15:00:19;101154.50;;;12.18;100.00